Time;durP1;ratioP1;P1;durP2;ratioP2;P2;SDS_P1;SDS_P2;PMS_P1;PMS_P2;Temp;Humidity;BMP_temperature;BMP_pressure;BME280_temperature;BME280_humidity;BME280_pressure;Samples;Min_cycle;Max_cycle;Signal;HPM_P1;HPM_P2
2022/10/04 00:01:08;;;;;;;6.97;5.80;;;;;;;10.24;78.01;96362.97;4999254;28;20188;-80
2022/10/04 00:03:40;;;;;;;6.60;5.70;;;;;;;10.31;78.04;96369.13;4999129;28;20220;-81
2022/10/04 00:06:16;;;;;;;6.30;5.67;;;;;;;10.29;78.56;96360.75;4993814;28;20291;-80
2022/10/04 00:08:47;;;;;;;6.80;5.70;;;;;;;10.32;78.95;96360.44;4997958;28;20206;-80
2022/10/04 00:11:18;;;;;;;7.50;5.90;;;;;;;10.38;79.16;96357.25;4998292;28;20207;-80
2022/10/04 00:13:50;;;;;;;6.93;5.50;;;;;;;10.38;78.46;96353.88;4998008;28;20211;-80
2022/10/04 00:16:28;;;;;;;6.03;4.90;;;;;;;10.42;78.77;96354.34;4997870;28;20220;-80
2022/10/04 00:19:24;;;;;;;5.37;4.87;;;;;;;10.54;78.06;96350.53;4992562;28;20633;-80
2022/10/04 00:22:17;;;;;;;5.47;4.80;;;;;;;10.64;77.63;96346.03;4992008;28;20203;-80
2022/10/04 00:25:18;;;;;;;6.53;4.50;;;;;;;10.61;78.23;96344.59;4997465;28;20244;-81
2022/10/04 00:28:25;;;;;;;6.27;5.00;;;;;;;10.69;78.05;96341.22;4994384;28;20195;-80
2022/10/04 00:31:14;;;;;;;6.03;4.60;;;;;;;10.75;78.15;96339.81;4995932;28;20265;-81
2022/10/04 00:33:42;;;;;;;8.53;4.93;;;;;;;10.81;77.88;96337.38;4998388;28;20242;-81
2022/10/04 00:36:45;;;;;;;7.33;5.20;;;;;;;10.85;77.75;96345.59;4998291;28;20219;-81
2022/10/04 00:39:26;;;;;;;5.83;4.60;;;;;;;10.87;77.88;96349.63;4998803;28;20610;-80
2022/10/04 00:41:59;;;;;;;6.20;5.13;;;;;;;10.85;77.19;96333.53;4990922;28;20195;-80
2022/10/04 00:44:33;;;;;;;8.27;4.90;;;;;;;10.69;77.65;96342.03;4997201;28;20223;-81
2022/10/04 00:47:02;;;;;;;6.40;5.00;;;;;;;10.73;77.74;96333.03;4997553;28;20281;-81
2022/10/04 00:49:34;;;;;;;5.73;4.70;;;;;;;10.75;77.49;96334.66;4997707;28;20218;-81
2022/10/04 00:52:04;;;;;;;5.50;4.97;;;;;;;10.77;77.47;96325.00;4997684;28;20223;-81
2022/10/04 00:54:34;;;;;;;4.77;4.20;;;;;;;10.79;77.62;96325.63;4997683;28;20367;-81
2022/10/04 00:57:04;;;;;;;5.83;4.43;;;;;;;10.83;77.33;96326.91;4998241;28;20220;-81
2022/10/04 00:59:38;;;;;;;6.80;4.47;;;;;;;10.76;77.18;96324.19;4992476;28;20683;-80
2022/10/04 01:02:07;;;;;;;5.97;4.87;;;;;;;10.64;77.17;96325.44;4993663;28;20214;-81
2022/10/04 01:04:41;;;;;;;5.27;4.77;;;;;;;10.59;76.76;96323.34;4997872;28;20259;-81
2022/10/04 01:07:11;;;;;;;5.30;4.33;;;;;;;10.53;77.37;96331.72;4997848;28;20216;-81
2022/10/04 01:09:46;;;;;;;6.60;4.27;;;;;;;10.58;76.92;96320.94;4997838;28;20214;-81
2022/10/04 01:12:26;;;;;;;6.20;4.67;;;;;;;10.47;76.82;96311.75;4996942;28;20211;-81
2022/10/04 01:15:00;;;;;;;6.87;4.63;;;;;;;10.39;76.79;96311.75;4990181;28;20666;-80
2022/10/04 01:17:27;;;;;;;5.37;4.47;;;;;;;10.23;77.48;96311.66;4995558;28;20276;-79
2022/10/04 01:19:55;;;;;;;5.17;4.50;;;;;;;10.28;77.81;96315.38;4996608;28;20199;-80
2022/10/04 01:22:35;;;;;;;7.13;4.27;;;;;;;10.20;77.66;96312.78;4996539;28;20206;-81
2022/10/04 01:25:02;;;;;;;5.73;4.40;;;;;;;10.17;77.83;96307.13;4991235;28;20215;-81
2022/10/04 01:27:35;;;;;;;4.70;4.20;;;;;;;10.08;78.01;96305.47;4995399;28;20207;-80
2022/10/04 01:30:04;;;;;;;4.60;4.03;;;;;;;10.10;77.94;96301.78;4997279;28;20196;-81
2022/10/04 01:32:31;;;;;;;4.40;4.00;;;;;;;10.15;78.32;96306.47;4986749;28;20567;-80
2022/10/04 01:34:58;;;;;;;4.67;4.07;;;;;;;10.16;77.94;96308.91;4996275;28;20811;-80
2022/10/04 01:37:25;;;;;;;5.30;4.20;;;;;;;10.12;77.80;96311.94;4996128;28;20191;-81
2022/10/04 01:39:52;;;;;;;4.10;3.70;;;;;;;10.07;77.05;96301.28;4996354;28;20196;-80
2022/10/04 01:42:22;;;;;;;4.53;3.93;;;;;;;10.08;76.64;96297.75;4995543;28;20206;-80
2022/10/04 01:44:54;;;;;;;4.53;3.90;;;;;;;10.05;76.89;96294.53;4995926;28;20219;-80
2022/10/04 01:47:26;;;;;;;4.53;3.77;;;;;;;10.13;77.14;96292.97;4996443;28;20308;-81
2022/10/04 01:49:57;;;;;;;5.00;4.10;;;;;;;10.07;76.46;96299.53;4996535;28;20195;-80
2022/10/04 01:52:29;;;;;;;4.57;4.17;;;;;;;10.02;76.74;96292.25;4995871;28;20196;-80
2022/10/04 01:55:03;;;;;;;5.30;3.87;;;;;;;9.95;76.28;96288.72;4990874;28;20288;-81
2022/10/04 01:57:35;;;;;;;5.53;4.07;;;;;;;9.85;77.44;96277.72;4997790;28;20574;-80
2022/10/04 02:00:06;;;;;;;4.60;3.73;;;;;;;9.88;77.35;96269.72;4998724;28;20258;-80
2022/10/04 02:02:36;;;;;;;4.93;4.43;;;;;;;9.90;77.12;96274.69;4998958;28;20200;-81
2022/10/04 02:05:06;;;;;;;4.93;3.90;;;;;;;9.89;77.35;96268.75;4998039;28;20227;-80
2022/10/04 02:07:35;;;;;;;4.73;4.30;;;;;;;9.90;77.50;96260.06;4998355;28;20207;-81
2022/10/04 02:10:06;;;;;;;4.93;4.20;;;;;;;9.93;77.02;96262.34;4999135;28;20226;-81
2022/10/04 02:12:34;;;;;;;4.27;3.80;;;;;;;9.84;76.76;96259.88;4998120;28;20195;-81
2022/10/04 02:15:04;;;;;;;6.00;3.87;;;;;;;9.79;77.37;96262.13;4998536;28;20199;-80
2022/10/04 02:17:37;;;;;;;8.93;3.93;;;;;;;9.85;77.08;96274.34;4998468;28;20195;-81
2022/10/04 02:20:11;;;;;;;4.40;4.00;;;;;;;9.89;76.54;96271.31;4998139;28;20214;-81
2022/10/04 02:22:38;;;;;;;4.47;4.00;;;;;;;9.83;76.56;96260.84;4997388;28;20203;-80
2022/10/04 02:25:08;;;;;;;4.20;3.80;;;;;;;9.89;76.57;96262.81;4992940;28;20223;-80
2022/10/04 02:27:34;;;;;;;4.97;3.80;;;;;;;9.89;76.57;96255.09;4997981;28;20203;-80
2022/10/04 02:30:03;;;;;;;4.47;3.70;;;;;;;9.85;76.00;96246.88;5004961;28;20196;-81
2022/10/04 02:35:16;;;;;;;6.83;3.87;;;;;;;9.71;76.61;96257.75;5000982;28;20226;-80
2022/10/04 02:37:43;;;;;;;5.07;3.90;;;;;;;9.70;76.93;96267.22;5003663;28;20204;-80
2022/10/04 02:40:13;;;;;;;4.03;3.73;;;;;;;9.75;76.83;96269.34;5004514;28;20222;-80
2022/10/04 02:42:47;;;;;;;5.67;3.70;;;;;;;9.81;76.27;96273.88;5004821;28;20210;-80
2022/10/04 02:45:19;;;;;;;5.13;3.50;;;;;;;9.77;75.74;96264.06;5004230;28;20273;-81
2022/10/04 02:47:49;;;;;;;4.63;3.50;;;;;;;9.65;76.02;96260.94;5004167;28;20199;-81
2022/10/04 02:50:26;;;;;;;3.77;3.33;;;;;;;9.55;76.21;96268.78;5004133;28;20211;-81
2022/10/04 02:52:57;;;;;;;5.97;3.73;;;;;;;9.46;77.20;96274.00;4998740;28;20203;-80
2022/10/04 02:55:28;;;;;;;6.00;3.90;;;;;;;9.49;77.26;96263.41;5003700;28;20618;-80
2022/10/04 02:57:56;;;;;;;4.50;3.50;;;;;;;9.55;77.34;96265.41;5004377;28;20199;-81
2022/10/04 03:00:25;;;;;;;5.57;3.63;;;;;;;9.40;76.52;96262.59;4997449;28;20204;-81
2022/10/04 03:03:15;;;;;;;5.40;3.57;;;;;;;9.15;77.56;96253.91;5004375;28;20628;-81
2022/10/04 03:05:44;;;;;;;6.20;3.63;;;;;;;9.24;77.36;96247.84;5004487;28;20227;-80
2022/10/04 03:08:11;;;;;;;4.37;3.93;;;;;;;9.26;77.45;96255.41;5005596;28;20199;-81
2022/10/04 03:10:43;;;;;;;5.23;3.47;;;;;;;9.29;77.44;96252.56;5004943;28;20199;-81
2022/10/04 03:13:09;;;;;;;6.17;3.80;;;;;;;9.27;77.45;96249.31;5004627;28;20207;-81
2022/10/04 03:15:37;;;;;;;6.47;3.53;;;;;;;9.31;77.49;96259.16;5004575;28;20231;-81
2022/10/04 03:18:04;;;;;;;4.70;3.63;;;;;;;9.39;77.19;96260.16;5004745;28;20210;-80
2022/10/04 03:20:31;;;;;;;3.73;3.40;;;;;;;9.44;76.80;96255.34;5003947;28;20207;-81
2022/10/04 03:22:57;;;;;;;4.87;3.43;;;;;;;9.46;76.98;96250.88;5004121;28;20700;-80
2022/10/04 03:25:29;;;;;;;6.83;3.50;;;;;;;9.48;76.67;96249.75;5004109;28;20234;-80
2022/10/04 03:28:00;;;;;;;3.93;3.10;;;;;;;9.46;76.07;96246.53;5002969;28;20203;-80
2022/10/04 03:30:27;;;;;;;3.90;3.20;;;;;;;9.47;76.07;96253.28;5003668;28;20203;-80
2022/10/04 03:32:55;;;;;;;5.20;3.70;;;;;;;9.37;75.96;96251.81;5004532;28;20206;-81
2022/10/04 03:35:28;;;;;;;4.13;3.20;;;;;;;9.34;76.60;96246.00;5004274;28;20315;-81
2022/10/04 03:37:56;;;;;;;6.20;3.77;;;;;;;9.32;77.03;96253.06;4996842;28;20218;-80
2022/10/04 03:40:26;;;;;;;6.40;3.70;;;;;;;9.30;76.65;96251.59;5001021;28;20660;-80
2022/10/04 03:42:53;;;;;;;5.47;4.00;;;;;;;9.35;76.96;96255.34;4999301;28;20191;-80
2022/10/04 03:45:23;;;;;;;5.73;3.67;;;;;;;9.33;76.81;96251.28;4999929;28;20247;-80
2022/10/04 03:47:52;;;;;;;5.20;3.80;;;;;;;9.39;76.02;96249.88;5000771;28;20207;-80
2022/10/04 03:50:23;;;;;;;5.73;3.90;;;;;;;9.16;76.59;96245.25;5000571;28;20208;-80
2022/10/04 03:52:54;;;;;;;7.53;4.23;;;;;;;9.16;77.87;96252.97;5000700;28;20191;-81
2022/10/04 03:55:25;;;;;;;6.20;4.03;;;;;;;9.19;77.47;96262.94;5000117;28;20250;-81
2022/10/04 03:57:52;;;;;;;5.70;3.90;;;;;;;9.24;77.76;96260.72;4998990;28;20202;-81
2022/10/04 04:00:20;;;;;;;4.20;3.80;;;;;;;9.36;76.80;96258.72;5000184;28;20207;-81
2022/10/04 04:02:52;;;;;;;6.10;4.10;;;;;;;9.44;76.50;96257.94;4999663;28;20204;-81
2022/10/04 04:05:23;;;;;;;5.10;3.67;;;;;;;9.41;76.20;96261.63;5000450;28;20231;-81
2022/10/04 04:08:01;;;;;;;5.47;4.10;;;;;;;9.34;76.60;96258.03;5000111;28;20199;-81
2022/10/04 04:10:30;;;;;;;4.03;3.50;;;;;;;9.30;76.43;96254.97;4999817;28;20203;-80
2022/10/04 04:13:02;;;;;;;5.40;3.47;;;;;;;9.30;76.34;96252.41;4997244;28;20882;-80
2022/10/04 04:15:32;;;;;;;6.30;4.10;;;;;;;9.20;75.93;96246.56;4997735;28;20242;-81
2022/10/04 04:18:02;;;;;;;6.63;4.00;;;;;;;9.18;76.23;96242.53;5002443;28;20199;-81
2022/10/04 04:20:32;;;;;;;6.83;4.00;;;;;;;9.08;76.62;96245.19;5001218;28;20204;-81
2022/10/04 04:23:03;;;;;;;5.93;3.70;;;;;;;9.12;76.42;96238.00;5001855;28;20195;-81
2022/10/04 04:25:34;;;;;;;6.00;3.93;;;;;;;9.09;76.50;96249.38;5002186;28;20227;-80
2022/10/04 04:28:07;;;;;;;5.47;3.77;;;;;;;9.07;76.61;96247.91;5001235;28;20203;-81
2022/10/04 04:30:38;;;;;;;11.07;3.80;;;;;;;9.09;76.86;96257.09;5001623;28;20203;-81
2022/10/04 04:33:15;;;;;;;5.90;4.60;;;;;;;9.07;76.41;96255.63;5003048;28;20204;-81
2022/10/04 04:35:41;;;;;;;8.30;4.67;;;;;;;8.99;76.64;96257.19;4997223;28;20215;-81
2022/10/04 04:38:22;;;;;;;6.07;4.00;;;;;;;9.00;76.84;96258.81;4996895;28;20210;-81
2022/10/04 04:40:49;;;;;;;6.63;3.73;;;;;;;8.92;76.55;96261.31;4999204;28;20199;-81
2022/10/04 04:43:19;;;;;;;7.03;4.10;;;;;;;8.88;77.05;96264.31;4999709;28;20203;-81
2022/10/04 04:45:49;;;;;;;6.67;4.43;;;;;;;8.86;77.34;96258.50;4990243;28;20220;-81
2022/10/04 04:48:17;;;;;;;6.73;3.80;;;;;;;8.88;77.21;96254.84;4998552;28;20292;-81
2022/10/04 04:50:49;;;;;;;4.87;3.97;;;;;;;8.80;76.82;96251.44;5000978;28;20794;-80
2022/10/04 04:53:18;;;;;;;5.33;4.13;;;;;;;8.80;77.50;96257.38;4999893;28;20204;-82
2022/10/04 04:55:49;;;;;;;7.23;3.90;;;;;;;8.77;77.46;96252.53;4998712;28;20230;-81
2022/10/04 04:58:20;;;;;;;5.93;4.10;;;;;;;8.62;77.83;96251.44;4999628;28;20214;-81
2022/10/04 05:00:55;;;;;;;5.33;4.13;;;;;;;8.65;77.99;96257.09;5000550;28;20275;-81
2022/10/04 05:03:21;;;;;;;7.20;3.80;;;;;;;8.74;77.95;96252.81;4999429;28;20203;-81
2022/10/04 05:05:49;;;;;;;6.73;3.83;;;;;;;8.75;78.26;96253.63;4999683;28;20223;-81
2022/10/04 05:08:19;;;;;;;4.27;3.87;;;;;;;8.85;77.90;96250.00;4999757;28;20207;-80
2022/10/04 05:10:54;;;;;;;5.30;4.10;;;;;;;8.89;77.61;96247.94;4999868;28;20235;-80
2022/10/04 05:13:22;;;;;;;5.90;3.97;;;;;;;8.89;77.36;96247.94;4999671;28;20230;-80
2022/10/04 05:15:54;;;;;;;7.17;4.20;;;;;;;8.97;77.07;96258.28;5000321;28;20216;-81
2022/10/04 05:18:30;;;;;;;9.40;4.70;;;;;;;8.80;77.24;96267.66;5000007;28;20214;-81
2022/10/04 05:21:02;;;;;;;4.53;3.80;;;;;;;8.81;77.34;96259.00;5000148;28;20207;-80
2022/10/04 05:23:29;;;;;;;5.60;3.90;;;;;;;8.79;77.33;96257.53;5005388;28;20203;-80
2022/10/04 05:25:56;;;;;;;5.17;4.43;;;;;;;8.83;77.65;96253.72;5006348;28;20565;-80
2022/10/04 05:28:22;;;;;;;6.67;4.50;;;;;;;8.89;77.43;96261.59;5005472;28;20208;-79
2022/10/04 05:31:02;;;;;;;5.53;4.00;;;;;;;8.86;77.36;96261.09;5006253;28;20263;-81
2022/10/04 05:33:38;;;;;;;5.67;4.10;;;;;;;8.84;77.91;96257.88;5006609;28;20215;-81
2022/10/04 05:36:37;;;;;;;6.17;3.80;;;;;;;8.97;76.99;96259.09;5006502;28;20604;-80
2022/10/04 05:39:10;;;;;;;4.73;4.23;;;;;;;8.90;77.02;96259.84;5007475;28;20191;-80
2022/10/04 05:41:42;;;;;;;7.10;4.17;;;;;;;8.98;77.01;96249.63;5007465;28;20214;-80
2022/10/04 05:44:24;;;;;;;5.90;4.07;;;;;;;9.01;77.45;96239.06;5006567;28;20199;-80
2022/10/04 05:46:54;;;;;;;6.93;4.90;;;;;;;9.04;77.63;96237.97;5004219;28;20242;-80
2022/10/04 05:49:23;;;;;;;6.73;4.77;;;;;;;9.17;78.39;96238.34;5003437;28;20207;-80
2022/10/04 05:51:54;;;;;;;6.27;4.63;;;;;;;9.25;78.84;96246.09;5004066;28;20227;-80
2022/10/04 05:54:23;;;;;;;7.33;4.70;;;;;;;9.34;79.19;96245.19;5003010;28;20210;-80
2022/10/04 05:57:07;;;;;;;5.47;4.60;;;;;;;9.42;79.35;96242.69;5003085;28;20223;-81
2022/10/04 05:59:50;;;;;;;7.50;4.77;;;;;;;9.53;79.13;96254.44;5004013;28;20196;-81
2022/10/04 06:02:31;;;;;;;8.67;4.83;;;;;;;9.63;78.01;96243.09;5004508;28;20242;-80
2022/10/04 06:05:09;;;;;;;8.13;5.07;;;;;;;9.68;79.41;96253.72;5004480;28;20832;-81
2022/10/04 06:07:41;;;;;;;7.10;4.30;;;;;;;9.74;79.53;96251.50;5004073;28;20679;-81
2022/10/04 06:10:48;;;;;;;7.63;4.77;;;;;;;9.84;79.66;96262.44;4984250;28;20203;-81
2022/10/04 06:13:28;;;;;;;5.67;4.33;;;;;;;10.01;79.57;96270.06;4923993;29;20189;-81
2022/10/04 06:16:19;;;;;;;6.53;4.60;;;;;;;10.16;79.56;96260.00;4974260;28;20227;-81
2022/10/04 06:19:25;;;;;;;6.73;4.60;;;;;;;10.26;79.96;96242.66;4983287;28;20204;-81
2022/10/04 06:22:14;;;;;;;5.17;4.60;;;;;;;10.38;80.43;96262.03;4981451;28;20204;-81
2022/10/04 06:24:44;;;;;;;6.40;5.17;;;;;;;10.41;80.63;96270.34;4993018;28;20222;-80
2022/10/04 06:27:16;;;;;;;8.07;4.87;;;;;;;10.49;81.20;96258.31;4997753;28;20227;-80
2022/10/04 06:29:48;;;;;;;6.57;5.27;;;;;;;10.60;80.39;96257.19;4999297;28;20210;-81
2022/10/04 06:32:44;;;;;;;7.20;5.40;;;;;;;10.68;80.39;96268.31;5000548;28;20218;-82
2022/10/04 06:35:29;;;;;;;10.47;4.87;;;;;;;10.77;80.10;96270.91;5000141;28;20199;-81
2022/10/04 06:38:27;;;;;;;7.00;5.00;;;;;;;10.83;80.08;96268.47;5001760;28;20263;-81
2022/10/04 06:41:15;;;;;;;9.17;5.10;;;;;;;10.90;80.22;96264.31;5001313;28;20210;-81
2022/10/04 06:44:15;;;;;;;6.90;4.80;;;;;;;10.84;80.83;96261.56;5001915;28;20207;-81
2022/10/04 06:46:48;;;;;;;12.20;5.20;;;;;;;10.92;80.21;96264.13;5002121;28;20227;-81
2022/10/04 06:49:31;;;;;;;8.53;5.10;;;;;;;11.00;79.94;96261.53;5001935;28;20214;-81
2022/10/04 06:52:33;;;;;;;12.30;5.27;;;;;;;11.05;80.46;96254.94;4999791;28;20251;-81
2022/10/04 06:55:23;;;;;;;9.50;5.10;;;;;;;11.00;80.76;96267.50;5002263;28;20194;-81
2022/10/04 06:58:31;;;;;;;8.30;5.37;;;;;;;11.08;80.36;96271.84;4989811;28;20213;-80
2022/10/04 07:01:04;;;;;;;9.83;4.97;;;;;;;11.06;80.93;96255.75;5001216;28;20199;-81
2022/10/04 07:03:37;;;;;;;7.67;5.40;;;;;;;11.14;80.68;96252.38;5001278;28;20204;-81
2022/10/04 07:06:05;;;;;;;7.57;5.07;;;;;;;11.25;80.47;96247.66;5001233;28;20234;-80
2022/10/04 07:08:41;;;;;;;9.83;5.60;;;;;;;11.28;80.36;96241.38;5001289;28;20202;-82
2022/10/04 07:11:14;;;;;;;9.27;5.33;;;;;;;11.28;81.25;96244.75;5000232;28;20210;-81
2022/10/04 07:13:51;;;;;;;7.47;5.27;;;;;;;11.33;80.69;96252.00;5001062;28;20242;-81
2022/10/04 07:16:36;;;;;;;7.47;5.53;;;;;;;11.38;80.84;96247.94;5002930;28;20715;-81
2022/10/04 07:19:25;;;;;;;10.97;5.43;;;;;;;11.49;79.99;96248.59;4993364;28;20742;-81
2022/10/04 07:22:00;;;;;;;7.90;5.20;;;;;;;11.66;80.02;96253.53;5002772;28;20210;-81
2022/10/04 07:24:39;;;;;;;7.63;5.33;;;;;;;12.04;79.03;96267.44;5003755;28;20207;-81
2022/10/04 07:27:10;;;;;;;8.27;5.10;;;;;;;12.30;77.64;96274.91;5002383;28;20227;-81
2022/10/04 07:29:40;;;;;;;8.77;5.07;;;;;;;12.43;78.01;96272.56;5003531;28;20204;-81
2022/10/04 07:32:12;;;;;;;8.07;4.53;;;;;;;12.47;77.25;96273.00;5002192;28;20581;-80
2022/10/04 07:34:45;;;;;;;6.40;4.63;;;;;;;12.38;77.29;96282.59;5002153;28;20935;-80
2022/10/04 07:37:13;;;;;;;5.10;4.60;;;;;;;12.55;76.67;96274.72;5001448;28;20584;-80
2022/10/04 07:39:51;;;;;;;5.83;4.50;;;;;;;12.90;76.36;96279.31;5001947;28;20211;-81
2022/10/04 07:42:26;;;;;;;8.07;4.83;;;;;;;13.21;74.54;96274.09;5002067;28;20218;-80
2022/10/04 07:45:08;;;;;;;7.83;4.77;;;;;;;13.37;73.70;96275.72;5001965;28;20187;-80
2022/10/04 07:47:35;;;;;;;6.00;4.60;;;;;;;13.56;73.24;96269.22;5001599;28;20223;-82
2022/10/04 07:50:19;;;;;;;8.30;4.47;;;;;;;13.80;71.96;96269.75;5001561;28;20214;-81
2022/10/04 07:52:52;;;;;;;7.87;4.67;;;;;;;13.97;71.90;96278.13;5001932;28;20205;-80
2022/10/04 07:55:28;;;;;;;5.93;4.00;;;;;;;14.30;70.34;96288.88;5000488;28;20207;-82
2022/10/04 07:58:16;;;;;;;6.33;4.00;;;;;;;14.56;69.00;96291.00;4997537;28;20660;-82
2022/10/04 08:00:50;;;;;;;6.43;4.33;;;;;;;14.59;68.47;96297.59;4993883;28;20203;-82
2022/10/04 08:03:57;;;;;;;7.13;4.07;;;;;;;14.41;67.73;96291.03;5002423;28;20207;-82
2022/10/04 08:06:33;;;;;;;5.27;4.00;;;;;;;14.43;68.69;96296.81;4999768;28;20231;-81
2022/10/04 08:09:24;;;;;;;7.35;4.25;;;;;;;14.45;67.94;96288.88;5001539;28;20211;-83
2022/10/04 08:12:02;;;;;;;9.00;4.20;;;;;;;14.71;68.10;96296.13;4991605;28;20222;-82
2022/10/04 08:14:49;;;;;;;5.90;4.00;;;;;;;14.75;68.19;96294.78;4998891;28;20215;-81
2022/10/04 08:17:27;;;;;;;4.83;3.70;;;;;;;14.86;67.57;96287.28;4998305;28;20224;-81
2022/10/04 08:20:03;;;;;;;5.18;4.10;;;;;;;14.99;65.31;96289.22;4998888;28;20279;-81
2022/10/04 08:22:47;;;;;;;4.78;3.63;;;;;;;15.18;66.10;96285.19;4998454;28;20217;-81
2022/10/04 08:25:22;;;;;;;11.32;3.83;;;;;;;15.45;64.87;96286.97;4998305;28;20211;-82
2022/10/04 08:31:12;;;;;;;3.90;3.50;;;;;;;15.65;64.20;96288.91;4997630;28;20211;-81
2022/10/04 08:34:01;;;;;;;4.57;3.78;;;;;;;15.43;63.51;96290.75;4979555;28;20208;-82
2022/10/04 08:36:48;;;;;;;4.88;3.20;;;;;;;15.20;64.25;96291.78;4992620;28;20219;-81
2022/10/04 08:39:28;;;;;;;6.60;3.60;;;;;;;15.15;64.13;96294.16;4997767;28;20210;-83
2022/10/04 08:42:30;;;;;;;4.00;3.33;;;;;;;15.31;64.75;96290.47;4997474;28;20203;-81
2022/10/04 08:45:38;;;;;;;4.00;3.60;;;;;;;15.27;64.18;96281.44;4996977;28;20207;-82
2022/10/04 08:48:59;;;;;;;3.92;3.53;;;;;;;15.34;63.93;96284.91;4998796;28;20594;-81
2022/10/04 08:52:01;;;;;;;8.15;4.13;;;;;;;15.48;62.63;96281.41;4960164;28;20259;-82
2022/10/04 08:55:11;;;;;;;7.03;3.80;;;;;;;15.47;63.08;96269.41;4994922;28;20211;-83
2022/10/04 08:57:54;;;;;;;7.45;3.60;;;;;;;15.53;62.82;96280.84;4994430;28;20203;-81
2022/10/04 09:00:32;;;;;;;14.07;9.85;;;;;;;15.57;63.68;96279.50;4993413;28;20203;-81
2022/10/04 09:03:45;;;;;;;7.43;4.15;;;;;;;15.62;62.32;96269.34;4993631;28;20203;-82
2022/10/04 09:06:43;;;;;;;5.80;3.80;;;;;;;15.57;62.27;96265.72;4995462;28;20230;-82
2022/10/04 09:09:43;;;;;;;4.35;3.60;;;;;;;15.48;63.54;96273.63;4994600;28;20207;-82
2022/10/04 09:12:43;;;;;;;5.22;3.50;;;;;;;15.42;63.13;96276.97;4995078;28;20196;-82
2022/10/04 09:15:40;;;;;;;4.55;3.63;;;;;;;15.41;63.57;96269.38;4994098;28;20218;-82
2022/10/04 09:18:23;;;;;;;5.25;3.50;;;;;;;15.39;63.24;96279.97;4995711;28;20556;-82
2022/10/04 09:20:57;;;;;;;4.20;3.78;;;;;;;15.21;64.93;96279.59;4997301;28;20203;-82
2022/10/04 09:23:57;;;;;;;4.78;3.80;;;;;;;15.23;63.97;96271.63;4995389;28;20214;-82
2022/10/04 09:26:36;;;;;;;6.72;3.70;;;;;;;15.22;65.21;96281.22;4994256;28;20227;-81
2022/10/04 09:29:15;;;;;;;5.30;3.70;;;;;;;15.07;64.73;96286.47;4994436;28;20590;-82
2022/10/04 09:32:09;;;;;;;4.15;3.50;;;;;;;14.96;65.55;96278.41;4995232;28;20200;-82
2022/10/04 09:34:51;;;;;;;6.22;3.78;;;;;;;14.92;66.21;96269.41;4995342;28;20196;-81
2022/10/04 09:37:41;;;;;;;4.65;4.00;;;;;;;14.88;66.05;96261.19;4975655;28;20220;-82
2022/10/04 09:40:50;;;;;;;6.32;3.90;;;;;;;14.94;65.03;96263.03;4976788;28;20208;-82
2022/10/04 09:43:46;;;;;;;8.60;3.70;;;;;;;15.01;66.67;96268.28;4958137;28;20207;-81
2022/10/04 09:46:30;;;;;;;5.18;3.70;;;;;;;15.04;66.42;96268.69;4986778;28;20223;-81
2022/10/04 09:49:15;;;;;;;4.55;3.20;;;;;;;15.10;66.22;96270.56;4996732;28;20199;-83
2022/10/04 09:52:03;;;;;;;7.30;3.58;;;;;;;15.11;65.69;96261.78;4996206;28;20683;-81
2022/10/04 09:54:53;;;;;;;5.82;3.45;;;;;;;15.18;65.89;96269.63;4996833;28;20684;-82
2022/10/04 09:57:38;;;;;;;8.50;3.35;;;;;;;15.24;66.56;96274.03;4997021;28;20612;-81
2022/10/04 10:00:17;;;;;;;4.63;3.30;;;;;;;15.32;66.35;96273.09;5001413;28;20199;-82
2022/10/04 10:03:02;;;;;;;4.75;3.08;;;;;;;15.37;64.70;96279.34;4981247;28;20214;-82
2022/10/04 10:05:54;;;;;;;4.55;3.20;;;;;;;15.60;64.80;96276.50;4981729;28;20738;-82
2022/10/04 10:08:30;;;;;;;4.18;2.97;;;;;;;15.63;64.91;96272.72;4981862;28;20224;-83
2022/10/04 10:14:14;;;;;;;6.82;3.65;;;;;;;15.52;64.55;96261.06;4983083;28;20263;-82
2022/10/04 10:16:58;;;;;;;3.47;3.17;;;;;;;15.42;64.63;96256.19;4979068;28;20217;-81
2022/10/04 10:19:47;;;;;;;3.42;3.13;;;;;;;15.36;63.81;96261.38;4982644;28;20279;-84
2022/10/04 10:22:31;;;;;;;4.22;3.22;;;;;;;15.18;63.98;96264.44;4997939;28;20203;-81
2022/10/04 10:25:17;;;;;;;4.55;3.13;;;;;;;15.14;65.22;96270.97;4998654;28;20217;-81
2022/10/04 10:27:54;;;;;;;4.28;3.30;;;;;;;15.14;64.47;96271.78;4997335;28;20564;-82
2022/10/04 10:30:25;;;;;;;3.22;2.80;;;;;;;15.23;64.73;96272.44;4997602;28;20218;-81
2022/10/04 10:33:10;;;;;;;4.97;3.25;;;;;;;15.40;64.93;96278.94;4999794;28;20199;-82
2022/10/04 10:35:52;;;;;;;4.82;3.25;;;;;;;15.59;64.37;96287.09;4998028;28;20219;-81
2022/10/04 10:38:39;;;;;;;3.00;2.70;;;;;;;15.53;64.31;96280.84;4998592;28;20222;-80
2022/10/04 10:41:25;;;;;;;3.15;2.80;;;;;;;15.50;63.87;96287.22;4995842;28;20207;-81
2022/10/04 10:44:25;;;;;;;3.47;2.80;;;;;;;15.41;63.72;96285.75;4997500;28;20214;-82
2022/10/04 10:47:17;;;;;;;5.28;3.03;;;;;;;15.50;64.39;96282.03;4991899;28;20575;-81
2022/10/04 10:49:55;;;;;;;4.65;3.33;;;;;;;15.49;64.20;96292.59;4997036;28;20279;-82
2022/10/04 10:52:58;;;;;;;5.00;3.05;;;;;;;15.65;63.20;96297.50;4996941;28;20206;-83
2022/10/04 10:56:07;;;;;;;3.33;2.50;;;;;;;15.83;63.42;96284.84;4997673;28;20209;-81
2022/10/04 10:59:36;;;;;;;4.20;2.85;;;;;;;15.86;64.08;96289.66;4998520;28;20265;-81
2022/10/04 11:02:36;;;;;;;5.35;2.30;;;;;;;16.01;63.93;96286.91;4998780;28;20294;-82
2022/10/04 11:05:30;;;;;;;3.85;2.78;;;;;;;16.19;63.01;96279.41;4997515;28;20219;-81
2022/10/04 11:08:03;;;;;;;5.70;2.80;;;;;;;16.27;63.38;96275.03;4999065;28;20234;-81
2022/10/04 11:11:05;;;;;;;3.63;2.78;;;;;;;16.14;62.72;96270.59;4998843;28;20235;-82
2022/10/04 11:14:11;;;;;;;3.33;3.00;;;;;;;16.09;61.01;96270.38;4998564;28;20207;-82
2022/10/04 11:17:09;;;;;;;4.03;2.92;;;;;;;15.99;61.87;96270.72;4961174;28;20224;-82
2022/10/04 11:20:24;;;;;;;7.18;5.20;;;;;;;16.02;63.11;96259.16;4994138;28;20211;-82
2022/10/04 11:23:33;;;;;;;6.78;3.30;;;;;;;16.05;63.63;96267.34;4936856;29;20315;-81
2022/10/04 11:26:32;;;;;;;3.20;2.90;;;;;;;15.98;62.76;96261.31;4936250;29;20651;-81
2022/10/04 11:29:15;;;;;;;5.07;2.80;;;;;;;16.02;62.54;96267.75;4997134;28;20211;-82
2022/10/04 11:32:06;;;;;;;3.50;2.95;;;;;;;15.96;62.90;96259.94;4996508;28;20203;-81
2022/10/04 11:35:01;;;;;;;5.32;3.08;;;;;;;16.04;62.47;96257.16;4996633;28;20239;-81
2022/10/04 11:37:45;;;;;;;5.53;3.15;;;;;;;16.13;62.16;96254.22;4977916;28;20732;-81
2022/10/04 11:40:28;;;;;;;3.05;2.50;;;;;;;16.33;61.65;96256.88;4977813;28;20204;-81
2022/10/04 11:43:18;;;;;;;4.28;2.60;;;;;;;16.38;61.67;96248.47;4978111;28;20204;-81
2022/10/04 11:46:06;;;;;;;6.25;3.30;;;;;;;16.56;61.95;96246.13;4983199;28;20254;-81
2022/10/04 11:48:47;;;;;;;3.05;2.40;;;;;;;16.77;61.77;96245.19;4985579;28;20701;-81
2022/10/04 11:52:03;;;;;;;4.03;2.70;;;;;;;16.99;60.65;96243.19;4985546;28;20210;-82
2022/10/04 11:54:57;;;;;;;3.38;2.70;;;;;;;16.93;60.01;96240.38;4920487;29;20202;-82
2022/10/04 11:57:31;;;;;;;3.42;2.80;;;;;;;16.72;59.96;96247.59;4982004;28;20220;-82
2022/10/04 12:00:09;;;;;;;2.97;2.67;;;;;;;16.59;60.17;96241.31;4985692;28;20635;-82
2022/10/04 12:03:01;;;;;;;3.72;2.67;;;;;;;16.49;60.46;96237.53;4983530;28;20212;-80
2022/10/04 12:05:49;;;;;;;3.28;2.70;;;;;;;16.46;59.69;96240.50;4984934;28;20267;-82
2022/10/04 12:08:40;;;;;;;4.55;2.97;;;;;;;16.36;60.13;96237.47;4985353;28;20251;-83
2022/10/04 12:14:29;;;;;;;6.60;2.95;;;;;;;16.60;60.38;96231.72;5001154;28;20675;-80
2022/10/04 12:17:32;;;;;;;4.32;3.15;;;;;;;16.74;62.43;96228.16;5003047;28;20230;-83
2022/10/04 12:20:27;;;;;;;3.28;2.70;;;;;;;16.83;60.35;96223.59;4989849;28;20203;-82
2022/10/04 12:23:05;;;;;;;5.50;2.75;;;;;;;17.00;59.72;96216.97;5002846;28;20204;-81
2022/10/04 12:26:19;;;;;;;2.95;2.50;;;;;;;17.21;59.92;96208.16;4999856;28;20227;-81
2022/10/04 12:29:17;;;;;;;6.68;2.45;;;;;;;17.53;59.19;96212.50;5001241;28;20291;-81
2022/10/04 12:31:48;;;;;;;3.45;2.58;;;;;;;17.74;58.92;96203.66;5002635;28;20203;-81
2022/10/04 12:34:26;;;;;;;3.42;2.60;;;;;;;18.01;58.76;96206.97;5001908;28;20227;-82
2022/10/04 12:37:12;;;;;;;2.90;2.45;;;;;;;18.25;57.16;96205.44;5001517;28;20219;-82
2022/10/04 12:39:58;;;;;;;3.00;2.70;;;;;;;18.26;55.84;96202.63;5002866;28;20199;-82
2022/10/04 12:42:33;;;;;;;4.10;2.95;;;;;;;18.35;57.63;96205.78;5001108;28;20211;-82
2022/10/04 12:45:27;;;;;;;4.03;3.10;;;;;;;18.33;55.74;96205.19;5001372;28;21113;-82
2022/10/04 12:48:07;;;;;;;4.53;2.47;;;;;;;18.31;55.31;96215.03;4999240;28;20262;-81